createdAt,value
2023-03-01T05:03:30.226Z,99481.06
2023-03-01T05:07:41.861Z,99481.19
2023-03-01T05:11:53.386Z,99480.91
2023-03-01T05:16:06.243Z,99479.53
2023-03-01T05:20:18.390Z,99475.06
2023-03-01T05:24:31.330Z,99483.69
2023-03-01T05:28:42.827Z,99488.88
2023-03-01T05:32:56.693Z,99483.75
2023-03-01T05:37:09.302Z,99479.53
2023-03-01T05:41:20.756Z,99476.94
2023-03-01T05:45:35.532Z,99483.28
2023-03-01T05:49:46.972Z,99479.41
2023-03-01T05:53:58.411Z,99469.25
2023-03-01T05:58:14.943Z,99477.63
2023-03-01T06:02:26.481Z,99473.88
2023-03-01T06:06:40.725Z,99470.16
2023-03-01T06:10:52.187Z,99461.41
2023-03-01T06:15:05.486Z,99463.09
2023-03-01T06:19:16.927Z,99459.09
2023-03-01T06:23:28.403Z,99462.13
2023-03-01T06:27:40.804Z,99452.44
2023-03-01T06:31:52.265Z,99457.72
2023-03-01T06:36:04.768Z,99450.44
2023-03-01T06:40:17.196Z,99450.47
2023-03-01T06:44:28.796Z,99446.75
2023-03-01T06:48:40.292Z,99442.22
2023-03-01T06:52:57.365Z,99447.16
2023-03-01T06:57:08.878Z,99445.31
2023-03-01T07:01:20.336Z,99459.78
2023-03-01T07:05:34.060Z,99458.66
2023-03-01T07:09:46.577Z,99453.59
2023-03-01T07:13:59.318Z,99451.72
2023-03-01T07:18:10.778Z,99449.63
2023-03-01T07:22:22.243Z,99442.03
2023-03-01T07:26:33.843Z,99441.41
2023-03-01T07:30:45.675Z,99441.13
2023-03-01T07:34:57.126Z,99441.22
2023-03-01T07:39:08.672Z,99427.53
2023-03-01T07:43:21.591Z,99429.38
2023-03-01T07:47:33.611Z,99427.31
2023-03-01T07:51:45.040Z,99426.53
2023-03-01T07:56:10.938Z,99421.09
2023-03-01T08:00:22.570Z,99422.44
2023-03-01T08:04:34.622Z,99411.91
2023-03-01T08:08:46.709Z,99404.63
2023-03-01T08:12:58.188Z,99404.69
2023-03-01T08:17:09.776Z,99396.94
2023-03-01T08:21:21.414Z,99408.50
2023-03-01T08:25:32.931Z,99407.25
2023-03-01T08:29:44.399Z,99412.69
2023-03-01T08:33:58.147Z,99404.00
2023-03-01T08:38:09.713Z,99393.22
2023-03-01T08:42:21.167Z,99399.66
2023-03-01T08:46:36.907Z,99393.47
2023-03-01T08:50:48.387Z,99391.59
2023-03-01T08:55:02.262Z,99402.59
2023-03-01T08:59:15.276Z,99391.53
2023-03-01T09:03:27.066Z,99388.81
2023-03-01T09:07:38.534Z,99382.28
2023-03-01T09:11:51.078Z,99384.50
2023-03-01T09:16:04.741Z,99368.78
2023-03-01T09:20:16.518Z,99368.03
2023-03-01T09:24:27.992Z,99355.28
2023-03-01T09:28:45.456Z,99353.16
2023-03-01T09:33:00.092Z,99350.53
2023-03-01T09:37:11.563Z,99352.44
2023-03-01T09:41:26.227Z,99342.00
2023-03-01T09:45:44.958Z,99327.22
2023-03-01T09:50:03.058Z,99333.47
2023-03-01T09:54:14.542Z,99327.88
2023-03-01T09:58:42.396Z,99343.88
2023-03-01T10:03:16.795Z,99314.31
2023-03-01T10:07:56.951Z,99322.56
2023-03-01T10:12:16.363Z,99312.47
2023-03-01T10:16:41.247Z,99295.53
2023-03-01T10:21:08.947Z,99310.47
2023-03-01T10:25:43.737Z,99305.63
2023-03-01T10:30:23.535Z,99304.16
2023-03-01T10:34:36.914Z,99288.41
2023-03-01T10:38:55.382Z,99293.59
2023-03-01T10:43:07.286Z,99288.28
2023-03-01T10:47:27.943Z,99279.28
2023-03-01T10:51:41.892Z,99285.94
2023-03-01T10:55:59.365Z,99283.78
2023-03-01T11:00:13.973Z,99278.19
2023-03-01T11:04:25.482Z,99260.50
2023-03-01T11:08:43.980Z,99265.78
2023-03-01T11:13:17.131Z,99250.19
2023-03-01T11:17:36.525Z,99237.72
2023-03-01T11:22:02.261Z,99266.91
2023-03-01T11:26:16.410Z,99242.53
2023-03-01T11:30:34.081Z,99232.56
2023-03-01T11:34:55.900Z,99217.38
2023-03-01T11:39:43.668Z,99227.72
2023-03-01T11:44:22.515Z,99224.31
2023-03-01T11:48:55.509Z,99223.59
2023-03-01T11:53:30.639Z,99217.81
2023-03-01T11:58:06.567Z,99214.13
2023-03-01T12:02:45.875Z,99209.38
2023-03-01T12:07:12.947Z,99202.16
2023-03-01T12:11:36.461Z,99192.44
2023-03-01T12:15:56.893Z,99181.59
2023-03-01T12:20:28.859Z,99175.88
2023-03-01T12:24:57.787Z,99170.38
2023-03-01T12:29:57.185Z,99144.78
2023-03-01T12:34:25.176Z,99145.63
2023-03-01T12:38:55.397Z,99143.47
2023-03-01T12:43:18.300Z,99134.44
2023-03-01T12:48:04.929Z,99130.00
2023-03-01T12:52:36.643Z,99129.16
2023-03-01T12:56:53.424Z,99114.47
2023-03-01T13:01:35.993Z,99130.09
2023-03-01T13:06:09.760Z,99102.06
2023-03-01T13:10:43.058Z,99107.13
2023-03-01T13:14:55.227Z,99096.50
2023-03-01T13:19:10.152Z,99087.34
2023-03-01T13:23:21.642Z,99094.59
2023-03-01T13:27:33.260Z,99092.16
2023-03-01T13:31:47.837Z,99098.88
2023-03-01T13:35:59.934Z,99093.00
2023-03-01T13:40:19.261Z,99074.72
2023-03-01T13:44:37.294Z,99070.06
2023-03-01T13:48:54.244Z,99066.94
2023-03-01T13:53:07.837Z,99069.09
2023-03-01T13:57:26.957Z,99051.47
2023-03-01T14:01:38.581Z,99052.00
2023-03-01T14:06:15.708Z,99041.28
2023-03-01T14:10:37.738Z,99046.47
2023-03-01T14:15:15.218Z,99026.97
2023-03-01T14:19:33.902Z,99031.47
2023-03-01T14:23:47.787Z,99050.06
2023-03-01T14:28:05.761Z,99030.66
2023-03-01T14:32:25.985Z,99047.59
2023-03-01T14:36:37.521Z,99036.53
2023-03-01T14:40:55.942Z,99038.16
2023-03-01T14:45:08.683Z,99041.03
2023-03-01T14:49:22.980Z,99037.19
2023-03-01T14:53:49.091Z,99044.41
2023-03-01T14:58:06.258Z,99042.13
2023-03-01T15:02:20.712Z,99037.75
2023-03-01T15:06:32.597Z,99022.72
2023-03-01T15:11:02.460Z,99049.72
2023-03-01T15:15:22.004Z,99035.97
2023-03-01T15:19:33.920Z,99043.75
2023-03-01T15:24:01.966Z,99049.47
2023-03-01T15:28:21.470Z,99038.16
2023-03-01T15:32:35.682Z,99036.66
2023-03-01T15:36:51.113Z,99043.47
2023-03-01T15:41:27.428Z,99041.84
2023-03-01T15:45:40.828Z,99040.31
2023-03-01T15:49:55.662Z,99046.75
2023-03-01T15:54:18.135Z,99048.25
2023-03-01T15:58:29.671Z,99047.81
2023-03-01T16:02:43.159Z,99054.13
2023-03-01T16:06:57.739Z,99068.03
2023-03-01T16:11:17.139Z,99052.75
2023-03-01T16:15:35.452Z,99059.72
2023-03-01T16:19:46.881Z,99063.28
2023-03-01T16:23:58.361Z,99064.75
2023-03-01T16:28:11.026Z,99058.19
2023-03-01T16:32:22.585Z,99044.94
2023-03-01T16:36:34.372Z,99048.34
2023-03-01T16:40:51.328Z,99067.22
2023-03-01T16:45:22.827Z,99062.81
2023-03-01T16:49:37.584Z,99056.69
2023-03-01T16:53:50.136Z,99047.16
2023-03-01T16:58:02.919Z,99053.38
2023-03-01T17:02:15.749Z,99050.38
2023-03-01T17:06:27.599Z,99056.84
2023-03-01T17:10:39.184Z,99065.00
2023-03-01T17:14:51.565Z,99067.47
2023-03-01T17:19:03.140Z,99077.63
2023-03-01T17:23:14.659Z,99083.59
2023-03-01T17:27:26.180Z,99082.00
2023-03-01T17:31:37.724Z,99069.50
2023-03-01T17:35:50.810Z,99051.69
2023-03-01T17:40:02.482Z,99064.25
2023-03-01T17:44:14.407Z,99065.47
2023-03-01T17:48:26.950Z,99069.22
2023-03-01T17:52:38.390Z,99065.50
2023-03-01T17:56:50.496Z,99070.72
2023-03-01T18:01:15.259Z,99064.16
2023-03-01T18:05:27.389Z,99068.28
2023-03-01T18:09:38.848Z,99065.63
2023-03-01T18:13:51.157Z,99082.09
2023-03-01T18:18:03.197Z,99083.75
2023-03-01T18:22:15.064Z,99080.34
2023-03-01T18:26:27.608Z,99091.78
2023-03-01T18:30:39.243Z,99092.81
2023-03-01T18:34:50.708Z,99088.50
2023-03-01T18:39:04.053Z,99086.16
2023-03-01T18:43:15.509Z,99086.63
2023-03-01T18:47:26.974Z,99079.81
2023-03-01T18:51:39.585Z,99086.59
2023-03-01T18:55:51.115Z,99085.16
2023-03-01T19:00:04.105Z,99088.44
2023-03-01T19:04:15.854Z,99084.59
2023-03-01T19:08:29.331Z,99082.13
2023-03-01T19:12:40.789Z,99077.91
2023-03-01T19:16:52.228Z,99073.09
2023-03-01T19:21:04.877Z,99079.56
2023-03-01T19:25:16.466Z,99074.63
2023-03-01T19:29:27.915Z,99068.03
2023-03-01T19:33:40.190Z,99082.97
2023-03-01T19:37:51.669Z,99076.03
2023-03-01T19:42:03.280Z,99072.28
2023-03-01T19:46:16.303Z,99090.34
2023-03-01T19:50:27.824Z,99079.53
2023-03-01T19:54:39.336Z,99080.22
2023-03-01T19:58:53.012Z,99082.59
2023-03-01T20:03:04.674Z,99079.16
2023-03-01T20:07:16.157Z,99082.50
2023-03-01T20:11:27.630Z,99084.19
2023-03-01T20:15:42.813Z,99087.91
2023-03-01T20:19:54.320Z,99085.31
2023-03-01T20:24:06.110Z,99083.69
2023-03-01T20:28:19.539Z,99087.44
2023-03-01T20:32:32.022Z,99088.13
2023-03-01T20:36:44.209Z,99084.66
2023-03-01T20:41:03.446Z,99084.16
2023-03-01T20:45:14.927Z,99082.03
2023-03-01T20:49:26.462Z,99085.66
2023-03-01T20:53:38.102Z,99081.28
2023-03-01T20:57:49.535Z,99082.31
2023-03-01T21:02:01.055Z,99087.69
2023-03-01T21:06:13.061Z,99076.56
2023-03-01T21:10:24.754Z,99064.00
2023-03-01T21:14:42.324Z,99064.81
2023-03-01T21:18:54.019Z,99066.13
2023-03-01T21:23:05.450Z,99054.28
2023-03-01T21:27:17.191Z,99058.28
2023-03-01T21:31:34.790Z,99059.66
2023-03-01T21:35:46.324Z,99058.22
2023-03-01T21:39:57.754Z,99049.25
2023-03-01T21:44:09.487Z,99042.34
2023-03-01T21:48:21.212Z,99049.59
2023-03-01T21:52:35.399Z,99051.16
2023-03-01T21:56:48.606Z,99040.75
2023-03-01T22:01:09.337Z,99038.09
2023-03-01T22:05:20.947Z,99037.88
2023-03-01T22:09:34.889Z,99038.91
2023-03-01T22:13:49.615Z,99029.16
2023-03-01T22:18:01.142Z,99035.94
2023-03-01T22:22:12.658Z,99040.31
2023-03-01T22:26:31.604Z,99037.53
